sensor_id;sensor_type;location;lat;lon;timestamp;temperature;humidity
39957;DHT22;48483;44.640;7.494;2023-04-16T00:01:35;12.70;74.40
39957;DHT22;48483;44.640;7.494;2023-04-16T00:04:03;12.70;73.70
39957;DHT22;48483;44.640;7.494;2023-04-16T00:06:30;12.70;72.70
39957;DHT22;48483;44.640;7.494;2023-04-16T00:08:58;12.70;72.60
39957;DHT22;48483;44.640;7.494;2023-04-16T00:11:25;12.70;72.50
39957;DHT22;48483;44.640;7.494;2023-04-16T00:13:51;12.60;72.90
39957;DHT22;48483;44.640;7.494;2023-04-16T00:16:19;12.70;73.10
39957;DHT22;48483;44.640;7.494;2023-04-16T00:18:47;12.70;73.60
39957;DHT22;48483;44.640;7.494;2023-04-16T00:21:16;12.60;73.70
39957;DHT22;48483;44.640;7.494;2023-04-16T00:23:43;12.60;73.50
39957;DHT22;48483;44.640;7.494;2023-04-16T00:26:16;12.60;73.40
39957;DHT22;48483;44.640;7.494;2023-04-16T00:28:46;12.60;73.30
39957;DHT22;48483;44.640;7.494;2023-04-16T00:31:13;12.60;73.30
39957;DHT22;48483;44.640;7.494;2023-04-16T00:33:39;12.70;73.30
39957;DHT22;48483;44.640;7.494;2023-04-16T00:36:06;12.60;73.10
39957;DHT22;48483;44.640;7.494;2023-04-16T00:38:35;12.70;73.20
39957;DHT22;48483;44.640;7.494;2023-04-16T00:41:02;12.60;73.30
39957;DHT22;48483;44.640;7.494;2023-04-16T00:43:29;12.60;73.20
39957;DHT22;48483;44.640;7.494;2023-04-16T00:45:57;12.60;73.20
39957;DHT22;48483;44.640;7.494;2023-04-16T00:48:24;12.60;73.30
39957;DHT22;48483;44.640;7.494;2023-04-16T00:50:53;12.60;73.20
39957;DHT22;48483;44.640;7.494;2023-04-16T00:53:21;12.60;73.40
39957;DHT22;48483;44.640;7.494;2023-04-16T00:55:49;12.60;73.60
39957;DHT22;48483;44.640;7.494;2023-04-16T00:58:16;12.60;73.70
39957;DHT22;48483;44.640;7.494;2023-04-16T01:00:42;12.60;74.00
39957;DHT22;48483;44.640;7.494;2023-04-16T01:03:09;12.60;74.30
39957;DHT22;48483;44.640;7.494;2023-04-16T01:05:36;12.60;74.70
39957;DHT22;48483;44.640;7.494;2023-04-16T01:08:03;12.60;74.30
39957;DHT22;48483;44.640;7.494;2023-04-16T01:10:30;12.60;74.40
39957;DHT22;48483;44.640;7.494;2023-04-16T01:12:58;12.60;75.10
39957;DHT22;48483;44.640;7.494;2023-04-16T01:15:25;12.50;76.40
39957;DHT22;48483;44.640;7.494;2023-04-16T01:17:52;12.40;79.00
39957;DHT22;48483;44.640;7.494;2023-04-16T01:20:18;12.20;80.40
39957;DHT22;48483;44.640;7.494;2023-04-16T01:22:46;12.00;81.40
39957;DHT22;48483;44.640;7.494;2023-04-16T01:25:14;11.90;82.20
39957;DHT22;48483;44.640;7.494;2023-04-16T01:27:41;11.80;82.80
39957;DHT22;48483;44.640;7.494;2023-04-16T01:30:08;11.70;83.20
39957;DHT22;48483;44.640;7.494;2023-04-16T01:32:46;11.70;83.50
39957;DHT22;48483;44.640;7.494;2023-04-16T01:35:13;11.70;83.90
39957;DHT22;48483;44.640;7.494;2023-04-16T01:37:39;11.60;84.80
39957;DHT22;48483;44.640;7.494;2023-04-16T01:40:08;11.60;86.10
39957;DHT22;48483;44.640;7.494;2023-04-16T01:42:35;11.50;86.30
39957;DHT22;48483;44.640;7.494;2023-04-16T01:45:02;11.40;86.80
39957;DHT22;48483;44.640;7.494;2023-04-16T01:47:29;11.40;87.00
39957;DHT22;48483;44.640;7.494;2023-04-16T01:49:55;11.40;86.90
39957;DHT22;48483;44.640;7.494;2023-04-16T01:52:22;11.40;87.10
39957;DHT22;48483;44.640;7.494;2023-04-16T01:54:49;11.30;87.30
39957;DHT22;48483;44.640;7.494;2023-04-16T01:57:16;11.30;87.50
39957;DHT22;48483;44.640;7.494;2023-04-16T01:59:43;11.30;87.70
39957;DHT22;48483;44.640;7.494;2023-04-16T02:02:11;11.30;87.60
39957;DHT22;48483;44.640;7.494;2023-04-16T02:04:39;11.20;88.50
39957;DHT22;48483;44.640;7.494;2023-04-16T02:07:06;11.00;89.50
39957;DHT22;48483;44.640;7.494;2023-04-16T02:09:33;10.80;90.20
39957;DHT22;48483;44.640;7.494;2023-04-16T02:12:00;10.70;90.50
39957;DHT22;48483;44.640;7.494;2023-04-16T02:14:30;10.60;90.80
39957;DHT22;48483;44.640;7.494;2023-04-16T02:16:56;10.60;90.90
39957;DHT22;48483;44.640;7.494;2023-04-16T02:19:36;10.70;90.90
39957;DHT22;48483;44.640;7.494;2023-04-16T02:22:03;10.70;90.90
39957;DHT22;48483;44.640;7.494;2023-04-16T02:24:30;10.70;91.10
39957;DHT22;48483;44.640;7.494;2023-04-16T02:26:58;10.70;91.10
39957;DHT22;48483;44.640;7.494;2023-04-16T02:29:25;10.80;91.10
39957;DHT22;48483;44.640;7.494;2023-04-16T02:31:59;10.80;91.10
39957;DHT22;48483;44.640;7.494;2023-04-16T02:34:25;10.80;91.00
39957;DHT22;48483;44.640;7.494;2023-04-16T02:36:52;10.90;91.10
39957;DHT22;48483;44.640;7.494;2023-04-16T02:39:20;10.90;91.10
39957;DHT22;48483;44.640;7.494;2023-04-16T02:41:47;10.80;91.10
39957;DHT22;48483;44.640;7.494;2023-04-16T02:44:13;10.80;91.50
39957;DHT22;48483;44.640;7.494;2023-04-16T02:46:40;10.80;91.80
39957;DHT22;48483;44.640;7.494;2023-04-16T02:49:08;10.80;92.10
39957;DHT22;48483;44.640;7.494;2023-04-16T02:51:35;10.80;92.20
39957;DHT22;48483;44.640;7.494;2023-04-16T02:54:02;10.80;92.00
39957;DHT22;48483;44.640;7.494;2023-04-16T02:56:29;10.80;92.00
39957;DHT22;48483;44.640;7.494;2023-04-16T02:58:56;10.80;92.10
39957;DHT22;48483;44.640;7.494;2023-04-16T03:01:22;10.60;92.80
39957;DHT22;48483;44.640;7.494;2023-04-16T03:03:49;10.50;93.40
39957;DHT22;48483;44.640;7.494;2023-04-16T03:06:17;10.40;93.50
39957;DHT22;48483;44.640;7.494;2023-04-16T03:08:44;10.40;93.40
39957;DHT22;48483;44.640;7.494;2023-04-16T03:11:10;10.30;93.50
39957;DHT22;48483;44.640;7.494;2023-04-16T03:13:37;10.30;93.60
39957;DHT22;48483;44.640;7.494;2023-04-16T03:16:04;10.20;93.90
39957;DHT22;48483;44.640;7.494;2023-04-16T03:18:30;10.20;94.20
39957;DHT22;48483;44.640;7.494;2023-04-16T03:20:57;10.20;94.30
39957;DHT22;48483;44.640;7.494;2023-04-16T03:23:25;10.20;94.30
39957;DHT22;48483;44.640;7.494;2023-04-16T03:25:51;10.20;94.30
39957;DHT22;48483;44.640;7.494;2023-04-16T03:28:18;10.30;94.10
39957;DHT22;48483;44.640;7.494;2023-04-16T03:30:49;10.30;94.20
39957;DHT22;48483;44.640;7.494;2023-04-16T03:33:16;10.20;94.60
39957;DHT22;48483;44.640;7.494;2023-04-16T03:35:43;10.10;95.00
39957;DHT22;48483;44.640;7.494;2023-04-16T03:38:09;10.10;95.20
39957;DHT22;48483;44.640;7.494;2023-04-16T03:40:38;10.20;95.00
39957;DHT22;48483;44.640;7.494;2023-04-16T03:43:04;10.20;94.90
39957;DHT22;48483;44.640;7.494;2023-04-16T03:45:32;10.20;94.80
39957;DHT22;48483;44.640;7.494;2023-04-16T03:47:59;10.20;95.00
39957;DHT22;48483;44.640;7.494;2023-04-16T03:50:26;10.10;95.00
39957;DHT22;48483;44.640;7.494;2023-04-16T03:52:52;10.10;95.40
39957;DHT22;48483;44.640;7.494;2023-04-16T03:55:19;10.00;95.90
39957;DHT22;48483;44.640;7.494;2023-04-16T03:57:47;10.00;96.10
39957;DHT22;48483;44.640;7.494;2023-04-16T04:00:15;9.90;96.20
39957;DHT22;48483;44.640;7.494;2023-04-16T04:02:54;9.80;96.40
39957;DHT22;48483;44.640;7.494;2023-04-16T04:05:22;9.80;96.70
39957;DHT22;48483;44.640;7.494;2023-04-16T04:07:49;9.80;96.80
39957;DHT22;48483;44.640;7.494;2023-04-16T04:10:16;9.80;96.80
39957;DHT22;48483;44.640;7.494;2023-04-16T04:12:42;9.80;96.90
39957;DHT22;48483;44.640;7.494;2023-04-16T04:15:11;9.80;96.90
39957;DHT22;48483;44.640;7.494;2023-04-16T04:17:37;9.80;96.90
39957;DHT22;48483;44.640;7.494;2023-04-16T04:20:05;9.90;97.30
39957;DHT22;48483;44.640;7.494;2023-04-16T04:22:32;9.80;97.30
39957;DHT22;48483;44.640;7.494;2023-04-16T04:24:58;9.80;97.50
39957;DHT22;48483;44.640;7.494;2023-04-16T04:27:27;9.80;97.60
39957;DHT22;48483;44.640;7.494;2023-04-16T04:29:55;9.70;97.80
39957;DHT22;48483;44.640;7.494;2023-04-16T04:32:23;9.70;97.90
39957;DHT22;48483;44.640;7.494;2023-04-16T04:34:50;9.60;98.20
39957;DHT22;48483;44.640;7.494;2023-04-16T04:37:16;9.70;98.00
39957;DHT22;48483;44.640;7.494;2023-04-16T04:39:43;9.80;97.70
39957;DHT22;48483;44.640;7.494;2023-04-16T04:42:11;9.70;97.50
39957;DHT22;48483;44.640;7.494;2023-04-16T04:44:38;9.80;97.30
39957;DHT22;48483;44.640;7.494;2023-04-16T04:47:05;9.80;97.10
39957;DHT22;48483;44.640;7.494;2023-04-16T04:49:33;9.80;97.20
39957;DHT22;48483;44.640;7.494;2023-04-16T04:52:00;9.70;97.40
39957;DHT22;48483;44.640;7.494;2023-04-16T04:54:27;9.70;97.10
39957;DHT22;48483;44.640;7.494;2023-04-16T04:56:54;9.70;96.90
39957;DHT22;48483;44.640;7.494;2023-04-16T04:59:22;9.60;97.00
39957;DHT22;48483;44.640;7.494;2023-04-16T05:01:49;9.60;97.20
39957;DHT22;48483;44.640;7.494;2023-04-16T05:04:16;9.70;97.10
39957;DHT22;48483;44.640;7.494;2023-04-16T05:06:44;9.70;96.90
39957;DHT22;48483;44.640;7.494;2023-04-16T05:09:10;9.80;96.80
39957;DHT22;48483;44.640;7.494;2023-04-16T05:11:37;9.80;96.40
39957;DHT22;48483;44.640;7.494;2023-04-16T05:14:04;9.80;96.40
39957;DHT22;48483;44.640;7.494;2023-04-16T05:16:31;9.80;96.40
39957;DHT22;48483;44.640;7.494;2023-04-16T05:18:57;9.80;96.60
39957;DHT22;48483;44.640;7.494;2023-04-16T05:21:24;9.80;96.60
39957;DHT22;48483;44.640;7.494;2023-04-16T05:23:53;9.80;97.30
39957;DHT22;48483;44.640;7.494;2023-04-16T05:26:20;9.70;97.10
39957;DHT22;48483;44.640;7.494;2023-04-16T05:28:46;9.70;96.70
39957;DHT22;48483;44.640;7.494;2023-04-16T05:31:13;9.70;96.50
39957;DHT22;48483;44.640;7.494;2023-04-16T05:33:39;9.70;96.80
39957;DHT22;48483;44.640;7.494;2023-04-16T05:36:06;9.70;96.70
39957;DHT22;48483;44.640;7.494;2023-04-16T05:38:32;9.70;96.40
39957;DHT22;48483;44.640;7.494;2023-04-16T05:41:00;9.80;96.40
39957;DHT22;48483;44.640;7.494;2023-04-16T05:43:27;9.80;96.30
39957;DHT22;48483;44.640;7.494;2023-04-16T05:45:53;9.90;96.40
39957;DHT22;48483;44.640;7.494;2023-04-16T05:48:20;9.90;96.60
39957;DHT22;48483;44.640;7.494;2023-04-16T05:50:48;9.90;96.90
39957;DHT22;48483;44.640;7.494;2023-04-16T05:53:15;9.90;96.90
39957;DHT22;48483;44.640;7.494;2023-04-16T05:55:44;10.00;97.20
39957;DHT22;48483;44.640;7.494;2023-04-16T05:58:13;10.00;97.50
39957;DHT22;48483;44.640;7.494;2023-04-16T06:00:39;10.00;97.80
39957;DHT22;48483;44.640;7.494;2023-04-16T06:03:06;10.10;98.00
39957;DHT22;48483;44.640;7.494;2023-04-16T06:05:33;10.10;98.20
39957;DHT22;48483;44.640;7.494;2023-04-16T06:07:59;10.20;98.20
39957;DHT22;48483;44.640;7.494;2023-04-16T06:10:28;10.20;98.40
39957;DHT22;48483;44.640;7.494;2023-04-16T06:12:55;10.30;98.60
39957;DHT22;48483;44.640;7.494;2023-04-16T06:15:23;10.40;98.60
39957;DHT22;48483;44.640;7.494;2023-04-16T06:17:49;10.50;98.80
39957;DHT22;48483;44.640;7.494;2023-04-16T06:20:16;10.60;98.90
39957;DHT22;48483;44.640;7.494;2023-04-16T06:22:43;10.60;98.70
39957;DHT22;48483;44.640;7.494;2023-04-16T06:25:09;10.70;98.60
39957;DHT22;48483;44.640;7.494;2023-04-16T06:27:36;10.80;98.50
39957;DHT22;48483;44.640;7.494;2023-04-16T06:30:03;10.90;98.80
39957;DHT22;48483;44.640;7.494;2023-04-16T06:32:31;11.10;98.80
39957;DHT22;48483;44.640;7.494;2023-04-16T06:34:57;11.20;98.20
39957;DHT22;48483;44.640;7.494;2023-04-16T06:37:24;11.40;97.80
39957;DHT22;48483;44.640;7.494;2023-04-16T06:39:51;11.60;96.90
39957;DHT22;48483;44.640;7.494;2023-04-16T06:42:17;11.80;95.50
39957;DHT22;48483;44.640;7.494;2023-04-16T06:44:44;12.00;94.40
39957;DHT22;48483;44.640;7.494;2023-04-16T06:47:10;12.10;93.50
39957;DHT22;48483;44.640;7.494;2023-04-16T06:49:38;12.30;92.10
39957;DHT22;48483;44.640;7.494;2023-04-16T06:52:05;12.40;90.90
39957;DHT22;48483;44.640;7.494;2023-04-16T06:54:32;12.60;90.50
39957;DHT22;48483;44.640;7.494;2023-04-16T06:56:58;12.80;89.80
39957;DHT22;48483;44.640;7.494;2023-04-16T06:59:25;13.00;89.10
39957;DHT22;48483;44.640;7.494;2023-04-16T07:01:51;13.10;88.30
39957;DHT22;48483;44.640;7.494;2023-04-16T07:04:18;13.20;88.10
39957;DHT22;48483;44.640;7.494;2023-04-16T07:06:46;13.40;87.90
39957;DHT22;48483;44.640;7.494;2023-04-16T07:09:12;13.50;87.60
39957;DHT22;48483;44.640;7.494;2023-04-16T07:11:39;13.60;87.10
39957;DHT22;48483;44.640;7.494;2023-04-16T07:14:07;13.80;87.20
39957;DHT22;48483;44.640;7.494;2023-04-16T07:16:33;13.90;86.10
39957;DHT22;48483;44.640;7.494;2023-04-16T07:19:00;14.00;85.40
39957;DHT22;48483;44.640;7.494;2023-04-16T07:21:26;14.20;84.80
39957;DHT22;48483;44.640;7.494;2023-04-16T07:23:54;14.30;84.60
39957;DHT22;48483;44.640;7.494;2023-04-16T07:26:21;14.40;84.70
39957;DHT22;48483;44.640;7.494;2023-04-16T07:28:47;14.40;83.70
39957;DHT22;48483;44.640;7.494;2023-04-16T07:31:14;14.50;83.80
39957;DHT22;48483;44.640;7.494;2023-04-16T07:33:41;14.60;82.60
39957;DHT22;48483;44.640;7.494;2023-04-16T07:36:07;14.60;82.00
39957;DHT22;48483;44.640;7.494;2023-04-16T07:38:34;14.70;81.90
39957;DHT22;48483;44.640;7.494;2023-04-16T07:41:02;14.80;81.50
39957;DHT22;48483;44.640;7.494;2023-04-16T07:43:28;14.90;80.60
39957;DHT22;48483;44.640;7.494;2023-04-16T07:45:55;14.90;80.30
39957;DHT22;48483;44.640;7.494;2023-04-16T07:48:22;15.00;80.30
39957;DHT22;48483;44.640;7.494;2023-04-16T07:50:48;15.10;80.40
39957;DHT22;48483;44.640;7.494;2023-04-16T07:53:15;15.20;80.70
39957;DHT22;48483;44.640;7.494;2023-04-16T07:55:42;15.30;80.60
39957;DHT22;48483;44.640;7.494;2023-04-16T07:58:10;15.50;80.30
39957;DHT22;48483;44.640;7.494;2023-04-16T08:00:36;15.60;78.80
39957;DHT22;48483;44.640;7.494;2023-04-16T08:03:03;15.60;77.90
39957;DHT22;48483;44.640;7.494;2023-04-16T08:05:29;15.70;77.50
39957;DHT22;48483;44.640;7.494;2023-04-16T08:07:56;15.80;77.60
39957;DHT22;48483;44.640;7.494;2023-04-16T08:10:22;16.00;79.20
39957;DHT22;48483;44.640;7.494;2023-04-16T08:12:49;16.10;80.20
39957;DHT22;48483;44.640;7.494;2023-04-16T08:15:17;15.90;80.10
39957;DHT22;48483;44.640;7.494;2023-04-16T08:17:44;15.80;80.80
39957;DHT22;48483;44.640;7.494;2023-04-16T08:20:11;16.00;81.60
39957;DHT22;48483;44.640;7.494;2023-04-16T08:22:37;16.20;81.00
39957;DHT22;48483;44.640;7.494;2023-04-16T08:25:04;16.30;79.40
39957;DHT22;48483;44.640;7.494;2023-04-16T08:27:31;16.30;78.50
39957;DHT22;48483;44.640;7.494;2023-04-16T08:29:57;16.40;79.00
39957;DHT22;48483;44.640;7.494;2023-04-16T08:32:26;16.50;78.90
39957;DHT22;48483;44.640;7.494;2023-04-16T08:34:52;16.40;78.70
39957;DHT22;48483;44.640;7.494;2023-04-16T08:37:20;16.40;79.90
39957;DHT22;48483;44.640;7.494;2023-04-16T08:39:48;16.50;79.90
39957;DHT22;48483;44.640;7.494;2023-04-16T08:42:22;16.60;79.20
39957;DHT22;48483;44.640;7.494;2023-04-16T08:44:52;16.70;78.40
39957;DHT22;48483;44.640;7.494;2023-04-16T08:47:33;16.60;78.50
39957;DHT22;48483;44.640;7.494;2023-04-16T08:50:02;16.80;78.30
39957;DHT22;48483;44.640;7.494;2023-04-16T08:52:30;16.90;78.60
39957;DHT22;48483;44.640;7.494;2023-04-16T08:55:03;17.00;77.20
39957;DHT22;48483;44.640;7.494;2023-04-16T08:57:42;17.00;76.90
39957;DHT22;48483;44.640;7.494;2023-04-16T09:00:13;16.90;76.30
39957;DHT22;48483;44.640;7.494;2023-04-16T09:02:41;16.90;76.10
39957;DHT22;48483;44.640;7.494;2023-04-16T09:05:11;17.10;75.10
39957;DHT22;48483;44.640;7.494;2023-04-16T09:07:40;17.20;74.10
39957;DHT22;48483;44.640;7.494;2023-04-16T09:10:09;17.30;72.00
39957;DHT22;48483;44.640;7.494;2023-04-16T09:12:36;17.30;71.00
39957;DHT22;48483;44.640;7.494;2023-04-16T09:15:04;17.40;69.90
39957;DHT22;48483;44.640;7.494;2023-04-16T09:17:31;17.50;68.20
39957;DHT22;48483;44.640;7.494;2023-04-16T09:20:02;17.50;67.10
39957;DHT22;48483;44.640;7.494;2023-04-16T09:22:31;17.60;67.00
39957;DHT22;48483;44.640;7.494;2023-04-16T09:24:59;17.80;65.20
39957;DHT22;48483;44.640;7.494;2023-04-16T09:27:27;17.80;63.90
39957;DHT22;48483;44.640;7.494;2023-04-16T09:29:55;17.90;63.60
39957;DHT22;48483;44.640;7.494;2023-04-16T09:32:24;17.90;61.90
39957;DHT22;48483;44.640;7.494;2023-04-16T09:34:54;17.90;62.20
39957;DHT22;48483;44.640;7.494;2023-04-16T09:37:24;18.00;61.20
39957;DHT22;48483;44.640;7.494;2023-04-16T09:39:56;17.90;62.10
39957;DHT22;48483;44.640;7.494;2023-04-16T09:42:24;18.20;62.60
39957;DHT22;48483;44.640;7.494;2023-04-16T09:44:53;18.20;61.90
39957;DHT22;48483;44.640;7.494;2023-04-16T09:47:20;18.20;61.30
39957;DHT22;48483;44.640;7.494;2023-04-16T09:49:48;18.30;60.90
39957;DHT22;48483;44.640;7.494;2023-04-16T09:52:15;18.20;58.40
39957;DHT22;48483;44.640;7.494;2023-04-16T09:54:48;18.10;57.10
39957;DHT22;48483;44.640;7.494;2023-04-16T09:57:18;18.20;57.20
39957;DHT22;48483;44.640;7.494;2023-04-16T09:59:46;18.20;58.40
39957;DHT22;48483;44.640;7.494;2023-04-16T10:02:13;18.30;58.70
39957;DHT22;48483;44.640;7.494;2023-04-16T10:04:45;18.20;58.40
39957;DHT22;48483;44.640;7.494;2023-04-16T10:07:12;18.40;58.80
39957;DHT22;48483;44.640;7.494;2023-04-16T10:09:38;18.40;56.80
39957;DHT22;48483;44.640;7.494;2023-04-16T10:12:07;18.30;55.50
39957;DHT22;48483;44.640;7.494;2023-04-16T10:14:34;18.30;56.10
39957;DHT22;48483;44.640;7.494;2023-04-16T10:17:01;18.30;55.20
39957;DHT22;48483;44.640;7.494;2023-04-16T10:19:29;18.20;53.50
39957;DHT22;48483;44.640;7.494;2023-04-16T10:21:58;18.30;53.30
39957;DHT22;48483;44.640;7.494;2023-04-16T10:24:25;18.30;53.50
39957;DHT22;48483;44.640;7.494;2023-04-16T10:26:52;18.30;51.40
39957;DHT22;48483;44.640;7.494;2023-04-16T10:29:21;18.40;50.70
39957;DHT22;48483;44.640;7.494;2023-04-16T10:31:49;18.50;51.00
39957;DHT22;48483;44.640;7.494;2023-04-16T10:34:17;18.70;52.20
39957;DHT22;48483;44.640;7.494;2023-04-16T10:36:48;18.80;51.40
39957;DHT22;48483;44.640;7.494;2023-04-16T10:39:17;18.90;50.70
39957;DHT22;48483;44.640;7.494;2023-04-16T10:41:44;18.90;51.00
39957;DHT22;48483;44.640;7.494;2023-04-16T10:44:11;18.90;50.70
39957;DHT22;48483;44.640;7.494;2023-04-16T10:46:40;18.80;51.10
39957;DHT22;48483;44.640;7.494;2023-04-16T10:49:13;18.70;50.60
39957;DHT22;48483;44.640;7.494;2023-04-16T10:51:40;18.70;50.30
39957;DHT22;48483;44.640;7.494;2023-04-16T10:54:20;18.80;49.90
39957;DHT22;48483;44.640;7.494;2023-04-16T10:56:47;18.90;50.20
39957;DHT22;48483;44.640;7.494;2023-04-16T10:59:17;18.90;49.90
39957;DHT22;48483;44.640;7.494;2023-04-16T11:01:49;18.90;49.10
39957;DHT22;48483;44.640;7.494;2023-04-16T11:04:35;18.90;49.10
39957;DHT22;48483;44.640;7.494;2023-04-16T11:07:13;19.00;49.10
39957;DHT22;48483;44.640;7.494;2023-04-16T11:09:45;19.00;47.90
39957;DHT22;48483;44.640;7.494;2023-04-16T11:12:13;19.10;48.80
39957;DHT22;48483;44.640;7.494;2023-04-16T11:14:42;19.10;49.40
39957;DHT22;48483;44.640;7.494;2023-04-16T11:17:10;19.20;49.30
39957;DHT22;48483;44.640;7.494;2023-04-16T11:19:37;19.20;48.70
39957;DHT22;48483;44.640;7.494;2023-04-16T11:22:05;19.20;48.20
39957;DHT22;48483;44.640;7.494;2023-04-16T11:24:32;19.20;47.60
39957;DHT22;48483;44.640;7.494;2023-04-16T11:26:58;19.20;46.60
39957;DHT22;48483;44.640;7.494;2023-04-16T11:29:25;19.30;46.30
39957;DHT22;48483;44.640;7.494;2023-04-16T11:31:52;19.20;46.00
39957;DHT22;48483;44.640;7.494;2023-04-16T11:34:20;19.30;47.50
39957;DHT22;48483;44.640;7.494;2023-04-16T11:36:48;19.40;47.50
39957;DHT22;48483;44.640;7.494;2023-04-16T11:39:15;19.40;47.00
39957;DHT22;48483;44.640;7.494;2023-04-16T11:41:42;19.50;46.80
39957;DHT22;48483;44.640;7.494;2023-04-16T11:44:19;19.50;46.90
39957;DHT22;48483;44.640;7.494;2023-04-16T11:46:46;19.50;45.10
39957;DHT22;48483;44.640;7.494;2023-04-16T11:49:12;19.60;44.50
39957;DHT22;48483;44.640;7.494;2023-04-16T11:51:41;19.60;44.60
39957;DHT22;48483;44.640;7.494;2023-04-16T11:54:08;19.50;43.00
39957;DHT22;48483;44.640;7.494;2023-04-16T11:56:38;19.50;42.70
39957;DHT22;48483;44.640;7.494;2023-04-16T11:59:11;19.50;42.20
39957;DHT22;48483;44.640;7.494;2023-04-16T12:01:39;19.60;42.70
39957;DHT22;48483;44.640;7.494;2023-04-16T12:04:06;19.70;42.70
39957;DHT22;48483;44.640;7.494;2023-04-16T12:06:33;19.60;42.60
39957;DHT22;48483;44.640;7.494;2023-04-16T12:09:21;19.60;42.50
39957;DHT22;48483;44.640;7.494;2023-04-16T12:11:49;19.60;42.90
39957;DHT22;48483;44.640;7.494;2023-04-16T12:14:15;19.70;43.50
39957;DHT22;48483;44.640;7.494;2023-04-16T12:16:42;19.70;43.50
39957;DHT22;48483;44.640;7.494;2023-04-16T12:19:11;19.70;43.70
39957;DHT22;48483;44.640;7.494;2023-04-16T12:21:39;19.70;44.00
39957;DHT22;48483;44.640;7.494;2023-04-16T12:24:11;19.80;44.60
39957;DHT22;48483;44.640;7.494;2023-04-16T12:26:42;19.80;44.40
39957;DHT22;48483;44.640;7.494;2023-04-16T12:29:20;19.60;44.00
39957;DHT22;48483;44.640;7.494;2023-04-16T12:31:48;19.70;43.90
39957;DHT22;48483;44.640;7.494;2023-04-16T12:34:15;19.70;44.60
39957;DHT22;48483;44.640;7.494;2023-04-16T12:36:43;19.80;44.40
39957;DHT22;48483;44.640;7.494;2023-04-16T12:39:13;19.80;44.10
39957;DHT22;48483;44.640;7.494;2023-04-16T12:41:41;19.80;43.80
39957;DHT22;48483;44.640;7.494;2023-04-16T12:44:14;19.70;43.00
39957;DHT22;48483;44.640;7.494;2023-04-16T12:46:42;19.70;43.10
39957;DHT22;48483;44.640;7.494;2023-04-16T12:49:10;19.80;43.70
39957;DHT22;48483;44.640;7.494;2023-04-16T12:51:37;19.90;43.00
39957;DHT22;48483;44.640;7.494;2023-04-16T12:54:05;19.90;42.70
39957;DHT22;48483;44.640;7.494;2023-04-16T12:56:36;20.00;43.30
39957;DHT22;48483;44.640;7.494;2023-04-16T12:59:03;20.00;43.20
39957;DHT22;48483;44.640;7.494;2023-04-16T13:01:30;20.00;43.10
39957;DHT22;48483;44.640;7.494;2023-04-16T13:03:56;20.00;43.10
39957;DHT22;48483;44.640;7.494;2023-04-16T13:06:23;20.00;42.90
39957;DHT22;48483;44.640;7.494;2023-04-16T13:08:49;20.00;43.00
39957;DHT22;48483;44.640;7.494;2023-04-16T13:11:16;19.90;42.50
39957;DHT22;48483;44.640;7.494;2023-04-16T13:13:45;19.70;41.60
39957;DHT22;48483;44.640;7.494;2023-04-16T13:16:12;19.70;42.40
39957;DHT22;48483;44.640;7.494;2023-04-16T13:18:39;19.80;41.80
39957;DHT22;48483;44.640;7.494;2023-04-16T13:21:06;19.80;42.00
39957;DHT22;48483;44.640;7.494;2023-04-16T13:23:33;19.90;42.50
39957;DHT22;48483;44.640;7.494;2023-04-16T13:26:00;20.00;42.00
39957;DHT22;48483;44.640;7.494;2023-04-16T13:28:26;20.10;42.60
39957;DHT22;48483;44.640;7.494;2023-04-16T13:30:54;20.20;42.80
39957;DHT22;48483;44.640;7.494;2023-04-16T13:33:21;20.30;42.90
39957;DHT22;48483;44.640;7.494;2023-04-16T13:35:48;20.40;43.20
39957;DHT22;48483;44.640;7.494;2023-04-16T13:38:15;20.30;42.40
39957;DHT22;48483;44.640;7.494;2023-04-16T13:40:42;20.20;41.90
39957;DHT22;48483;44.640;7.494;2023-04-16T13:43:08;20.10;41.40
39957;DHT22;48483;44.640;7.494;2023-04-16T13:45:36;20.00;41.30
39957;DHT22;48483;44.640;7.494;2023-04-16T13:48:04;19.80;41.50
39957;DHT22;48483;44.640;7.494;2023-04-16T13:50:31;19.70;42.00
39957;DHT22;48483;44.640;7.494;2023-04-16T13:52:57;19.70;42.30
39957;DHT22;48483;44.640;7.494;2023-04-16T13:55:24;19.70;41.60
39957;DHT22;48483;44.640;7.494;2023-04-16T13:57:51;19.70;41.60
39957;DHT22;48483;44.640;7.494;2023-04-16T14:00:18;19.70;41.80
39957;DHT22;48483;44.640;7.494;2023-04-16T14:02:45;19.60;41.40
39957;DHT22;48483;44.640;7.494;2023-04-16T14:05:15;19.70;41.60
39957;DHT22;48483;44.640;7.494;2023-04-16T14:07:41;19.70;41.00
39957;DHT22;48483;44.640;7.494;2023-04-16T14:10:09;19.70;41.30
39957;DHT22;48483;44.640;7.494;2023-04-16T14:12:35;19.70;41.70
39957;DHT22;48483;44.640;7.494;2023-04-16T14:15:03;19.70;41.90
39957;DHT22;48483;44.640;7.494;2023-04-16T14:17:29;19.80;42.00
39957;DHT22;48483;44.640;7.494;2023-04-16T14:19:56;19.80;42.10
39957;DHT22;48483;44.640;7.494;2023-04-16T14:22:24;19.70;42.50
39957;DHT22;48483;44.640;7.494;2023-04-16T14:24:51;19.70;42.30
39957;DHT22;48483;44.640;7.494;2023-04-16T14:27:17;19.60;43.10
39957;DHT22;48483;44.640;7.494;2023-04-16T14:29:44;19.60;42.50
39957;DHT22;48483;44.640;7.494;2023-04-16T14:32:11;19.60;43.10
39957;DHT22;48483;44.640;7.494;2023-04-16T14:34:38;19.60;41.80
39957;DHT22;48483;44.640;7.494;2023-04-16T14:37:05;19.60;41.80
39957;DHT22;48483;44.640;7.494;2023-04-16T14:39:33;19.60;41.70
39957;DHT22;48483;44.640;7.494;2023-04-16T14:42:01;19.70;42.30
39957;DHT22;48483;44.640;7.494;2023-04-16T14:44:28;19.70;42.70
39957;DHT22;48483;44.640;7.494;2023-04-16T14:46:55;19.70;43.10
39957;DHT22;48483;44.640;7.494;2023-04-16T14:49:21;19.70;43.10
39957;DHT22;48483;44.640;7.494;2023-04-16T14:51:48;19.80;43.10
39957;DHT22;48483;44.640;7.494;2023-04-16T14:54:15;19.90;42.20
39957;DHT22;48483;44.640;7.494;2023-04-16T14:56:42;20.00;42.10
39957;DHT22;48483;44.640;7.494;2023-04-16T14:59:09;20.00;42.20
39957;DHT22;48483;44.640;7.494;2023-04-16T15:01:36;20.00;41.40
39957;DHT22;48483;44.640;7.494;2023-04-16T15:04:05;19.90;41.30
39957;DHT22;48483;44.640;7.494;2023-04-16T15:06:32;19.90;41.70
39957;DHT22;48483;44.640;7.494;2023-04-16T15:08:59;20.00;42.00
39957;DHT22;48483;44.640;7.494;2023-04-16T15:11:25;20.00;41.30
39957;DHT22;48483;44.640;7.494;2023-04-16T15:13:53;20.10;41.50
39957;DHT22;48483;44.640;7.494;2023-04-16T15:16:20;20.10;41.10
39957;DHT22;48483;44.640;7.494;2023-04-16T15:18:47;20.20;41.60
39957;DHT22;48483;44.640;7.494;2023-04-16T15:21:13;20.20;41.60
39957;DHT22;48483;44.640;7.494;2023-04-16T15:23:40;20.20;41.40
39957;DHT22;48483;44.640;7.494;2023-04-16T15:26:07;20.20;41.60
39957;DHT22;48483;44.640;7.494;2023-04-16T15:28:33;20.20;41.00
39957;DHT22;48483;44.640;7.494;2023-04-16T15:31:01;20.20;41.20
39957;DHT22;48483;44.640;7.494;2023-04-16T15:33:28;20.10;40.70
39957;DHT22;48483;44.640;7.494;2023-04-16T15:35:54;20.10;41.20